sensor_id;sensor_type;location;lat;lon;timestamp;pressure;altitude;pressure_sealevel;temperature;humidity
55757;BME280;41676;44.610;44.078;2023-01-31T00:03:10;100053.97;;;-0.59;93.83
55757;BME280;41676;44.610;44.078;2023-01-31T00:08:10;99979.16;;;-1.10;94.09
55757;BME280;41676;44.610;44.078;2023-01-31T00:13:13;99981.00;;;-1.25;92.80
55757;BME280;41676;44.610;44.078;2023-01-31T00:18:14;100008.03;;;-1.13;93.02
55757;BME280;41676;44.610;44.078;2023-01-31T00:23:15;100054.56;;;-0.94;93.03
55757;BME280;41676;44.610;44.078;2023-01-31T00:28:16;100015.56;;;-1.35;93.23
55757;BME280;41676;44.610;44.078;2023-01-31T00:33:16;100031.41;;;-1.39;93.54
55757;BME280;41676;44.610;44.078;2023-01-31T00:38:17;99962.56;;;-1.89;93.28
55757;BME280;41676;44.610;44.078;2023-01-31T00:43:18;100047.97;;;-1.40;93.39
55757;BME280;41676;44.610;44.078;2023-01-31T00:48:19;100007.19;;;-1.53;93.01
55757;BME280;41676;44.610;44.078;2023-01-31T00:53:20;100035.31;;;-1.31;93.20
55757;BME280;41676;44.610;44.078;2023-01-31T00:58:25;100026.91;;;-1.49;92.79
55757;BME280;41676;44.610;44.078;2023-01-31T01:03:25;100031.91;;;-1.46;92.11
55757;BME280;41676;44.610;44.078;2023-01-31T01:08:27;99942.06;;;-2.08;92.70
55757;BME280;41676;44.610;44.078;2023-01-31T01:13:28;100020.75;;;-1.48;93.08
55757;BME280;41676;44.610;44.078;2023-01-31T01:18:29;100017.78;;;-1.56;93.36
55757;BME280;41676;44.610;44.078;2023-01-31T01:23:30;100033.78;;;-1.48;92.85
55757;BME280;41676;44.610;44.078;2023-01-31T01:28:34;100009.16;;;-1.57;93.10
55757;BME280;41676;44.610;44.078;2023-01-31T01:33:35;99962.91;;;-1.80;93.01
55757;BME280;41676;44.610;44.078;2023-01-31T01:38:36;99989.66;;;-1.64;93.16
55757;BME280;41676;44.610;44.078;2023-01-31T01:48:45;99912.56;;;-1.94;93.60
55757;BME280;41676;44.610;44.078;2023-01-31T01:53:49;99984.09;;;-1.32;93.89
55757;BME280;41676;44.610;44.078;2023-01-31T01:59:00;99930.66;;;-1.65;94.53
55757;BME280;41676;44.610;44.078;2023-01-31T02:04:04;100018.34;;;-1.11;93.81
55757;BME280;41676;44.610;44.078;2023-01-31T02:09:08;99992.59;;;-1.16;94.50
55757;BME280;41676;44.610;44.078;2023-01-31T02:14:13;99941.69;;;-1.34;94.51
55757;BME280;41676;44.610;44.078;2023-01-31T02:25:06;99862.25;;;-1.54;95.43
55757;BME280;41676;44.610;44.078;2023-01-31T02:35:44;99852.56;;;-1.40;95.06
55757;BME280;41676;44.610;44.078;2023-01-31T02:46:15;99982.00;;;-0.25;95.42
55757;BME280;41676;44.610;44.078;2023-01-31T02:51:24;99979.94;;;-0.20;95.26
55757;BME280;41676;44.610;44.078;2023-01-31T02:56:33;100013.38;;;-0.01;96.26
55757;BME280;41676;44.610;44.078;2023-01-31T03:01:42;99956.22;;;-0.17;96.39
55757;BME280;41676;44.610;44.078;2023-01-31T03:07:19;100010.81;;;0.23;96.89
55757;BME280;41676;44.610;44.078;2023-01-31T03:22:37;100017.81;;;0.47;95.96
55757;BME280;41676;44.610;44.078;2023-01-31T03:27:44;100008.19;;;0.47;96.17
55757;BME280;41676;44.610;44.078;2023-01-31T03:33:08;99977.53;;;0.38;97.06
55757;BME280;41676;44.610;44.078;2023-01-31T03:38:17;99996.25;;;0.56;97.40
55757;BME280;41676;44.610;44.078;2023-01-31T03:43:38;99933.03;;;0.51;98.73
55757;BME280;41676;44.610;44.078;2023-01-31T03:48:45;99965.97;;;1.00;97.38
55757;BME280;41676;44.610;44.078;2023-01-31T03:53:57;99955.06;;;1.17;97.16
55757;BME280;41676;44.610;44.078;2023-01-31T03:59:03;99933.03;;;1.20;97.02
55757;BME280;41676;44.610;44.078;2023-01-31T04:04:11;99942.31;;;1.46;96.54
55757;BME280;41676;44.610;44.078;2023-01-31T04:09:15;99983.72;;;1.86;96.48
55757;BME280;41676;44.610;44.078;2023-01-31T04:14:17;99994.22;;;1.75;96.39
55757;BME280;41676;44.610;44.078;2023-01-31T04:19:18;100006.59;;;1.62;96.40
55757;BME280;41676;44.610;44.078;2023-01-31T04:24:19;99909.34;;;0.99;96.57
55757;BME280;41676;44.610;44.078;2023-01-31T04:29:19;99983.13;;;1.26;96.14
55757;BME280;41676;44.610;44.078;2023-01-31T04:34:20;100000.97;;;1.32;96.03
55757;BME280;41676;44.610;44.078;2023-01-31T04:39:21;100010.97;;;1.27;96.14
55757;BME280;41676;44.610;44.078;2023-01-31T04:44:21;99999.53;;;1.28;96.53
55757;BME280;41676;44.610;44.078;2023-01-31T04:49:22;100000.97;;;1.32;96.61
55757;BME280;41676;44.610;44.078;2023-01-31T04:54:23;99939.22;;;1.07;96.83
55757;BME280;41676;44.610;44.078;2023-01-31T04:59:24;99952.56;;;1.27;96.61
55757;BME280;41676;44.610;44.078;2023-01-31T05:04:24;100009.91;;;1.64;96.27
55757;BME280;41676;44.610;44.078;2023-01-31T05:09:25;100001.00;;;1.66;96.46
55757;BME280;41676;44.610;44.078;2023-01-31T05:14:26;99943.28;;;1.45;96.62
55757;BME280;41676;44.610;44.078;2023-01-31T05:19:27;99985.38;;;1.87;96.08
55757;BME280;41676;44.610;44.078;2023-01-31T05:24:32;99928.31;;;1.47;96.06
55757;BME280;41676;44.610;44.078;2023-01-31T05:29:33;99913.41;;;1.48;96.31
55757;BME280;41676;44.610;44.078;2023-01-31T05:34:34;100000.94;;;2.11;96.46
55757;BME280;41676;44.610;44.078;2023-01-31T05:39:35;99972.84;;;2.02;96.20
55757;BME280;41676;44.610;44.078;2023-01-31T05:44:36;100004.59;;;2.31;95.91
55757;BME280;41676;44.610;44.078;2023-01-31T05:49:38;99898.88;;;1.77;95.86
55757;BME280;41676;44.610;44.078;2023-01-31T05:54:38;99988.22;;;2.50;95.63
55757;BME280;41676;44.610;44.078;2023-01-31T05:59:41;99993.19;;;2.53;95.84
55757;BME280;41676;44.610;44.078;2023-01-31T06:04:41;99915.38;;;2.21;95.85
55757;BME280;41676;44.610;44.078;2023-01-31T06:09:42;99970.28;;;2.66;95.63
55757;BME280;41676;44.610;44.078;2023-01-31T06:14:43;99921.25;;;2.46;95.38
55757;BME280;41676;44.610;44.078;2023-01-31T06:19:45;99947.81;;;2.73;95.83
55757;BME280;41676;44.610;44.078;2023-01-31T06:24:46;99975.66;;;3.07;95.89
55757;BME280;41676;44.610;44.078;2023-01-31T06:29:46;99972.41;;;3.14;95.47
55757;BME280;41676;44.610;44.078;2023-01-31T06:34:47;99964.78;;;3.11;95.20
55757;BME280;41676;44.610;44.078;2023-01-31T06:39:48;99958.56;;;3.12;95.55
55757;BME280;41676;44.610;44.078;2023-01-31T06:44:48;99944.91;;;3.18;95.20
55757;BME280;41676;44.610;44.078;2023-01-31T06:49:49;99973.94;;;3.48;95.30
55757;BME280;41676;44.610;44.078;2023-01-31T06:54:50;99897.78;;;3.17;94.81
55757;BME280;41676;44.610;44.078;2023-01-31T06:59:51;99956.06;;;3.72;94.87
55757;BME280;41676;44.610;44.078;2023-01-31T07:04:52;99869.25;;;3.33;95.21
55757;BME280;41676;44.610;44.078;2023-01-31T07:09:52;99932.31;;;3.93;94.18
55757;BME280;41676;44.610;44.078;2023-01-31T07:14:53;99953.53;;;4.21;94.35
55757;BME280;41676;44.610;44.078;2023-01-31T07:19:54;99858.97;;;3.71;94.10
55757;BME280;41676;44.610;44.078;2023-01-31T07:24:54;99943.59;;;4.34;94.28
55757;BME280;41676;44.610;44.078;2023-01-31T07:29:55;99933.47;;;4.39;94.04
55757;BME280;41676;44.610;44.078;2023-01-31T07:34:56;99963.94;;;4.71;93.30
55757;BME280;41676;44.610;44.078;2023-01-31T07:39:56;99933.88;;;4.54;93.35
55757;BME280;41676;44.610;44.078;2023-01-31T07:44:57;99929.75;;;4.61;93.05
55757;BME280;41676;44.610;44.078;2023-01-31T07:49:58;99945.34;;;4.72;92.56
55757;BME280;41676;44.610;44.078;2023-01-31T07:54:58;99934.97;;;4.80;93.08
55757;BME280;41676;44.610;44.078;2023-01-31T07:59:59;99953.66;;;4.87;91.91
55757;BME280;41676;44.610;44.078;2023-01-31T08:05:01;99959.75;;;4.97;92.41
55757;BME280;41676;44.610;44.078;2023-01-31T08:10:01;99949.72;;;5.11;92.38
55757;BME280;41676;44.610;44.078;2023-01-31T08:15:03;99843.75;;;4.62;91.65
55757;BME280;41676;44.610;44.078;2023-01-31T08:20:04;99943.84;;;5.36;91.31
55757;BME280;41676;44.610;44.078;2023-01-31T08:25:04;99933.78;;;5.22;91.20
55757;BME280;41676;44.610;44.078;2023-01-31T08:30:06;99930.19;;;5.13;92.00
55757;BME280;41676;44.610;44.078;2023-01-31T08:35:07;99828.91;;;4.61;91.12
55757;BME280;41676;44.610;44.078;2023-01-31T08:40:08;99909.94;;;5.14;90.07
55757;BME280;41676;44.610;44.078;2023-01-31T08:45:09;99903.25;;;5.29;89.68
55757;BME280;41676;44.610;44.078;2023-01-31T08:50:10;99871.56;;;5.21;89.34
55757;BME280;41676;44.610;44.078;2023-01-31T08:55:11;99883.44;;;5.53;88.92
55757;BME280;41676;44.610;44.078;2023-01-31T09:00:13;99851.78;;;5.35;87.80
55757;BME280;41676;44.610;44.078;2023-01-31T09:05:14;99860.34;;;5.46;88.09
55757;BME280;41676;44.610;44.078;2023-01-31T09:10:19;99770.06;;;4.99;87.39
55757;BME280;41676;44.610;44.078;2023-01-31T09:15:20;99830.13;;;5.41;87.78
55757;BME280;41676;44.610;44.078;2023-01-31T09:20:20;99812.50;;;5.41;87.55
55757;BME280;41676;44.610;44.078;2023-01-31T09:25:21;99795.53;;;5.36;86.65
55757;BME280;41676;44.610;44.078;2023-01-31T09:30:22;99855.94;;;5.83;86.00
55757;BME280;41676;44.610;44.078;2023-01-31T09:35:22;99858.63;;;6.01;84.74
55757;BME280;41676;44.610;44.078;2023-01-31T09:40:24;99826.81;;;5.84;84.33
55757;BME280;41676;44.610;44.078;2023-01-31T09:45:31;99849.28;;;6.06;82.98
55757;BME280;41676;44.610;44.078;2023-01-31T09:50:42;99812.72;;;5.76;82.06
55757;BME280;41676;44.610;44.078;2023-01-31T10:01:28;99744.34;;;5.74;80.92
55757;BME280;41676;44.610;44.078;2023-01-31T10:12:26;99775.28;;;6.26;79.76
55757;BME280;41676;44.610;44.078;2023-01-31T10:17:32;99746.94;;;6.02;78.14
55757;BME280;41676;44.610;44.078;2023-01-31T10:38:40;99783.75;;;5.93;76.61
55757;BME280;41676;44.610;44.078;2023-01-31T10:43:56;99776.22;;;5.99;76.63
55757;BME280;41676;44.610;44.078;2023-01-31T10:48:59;99775.25;;;6.00;78.05
55757;BME280;41676;44.610;44.078;2023-01-31T10:59:28;99776.34;;;6.15;76.39
55757;BME280;41676;44.610;44.078;2023-01-31T11:04:31;99771.06;;;6.15;75.72
55757;BME280;41676;44.610;44.078;2023-01-31T11:09:53;99765.69;;;5.99;74.73
55757;BME280;41676;44.610;44.078;2023-01-31T11:15:15;99765.00;;;5.97;73.98
55757;BME280;41676;44.610;44.078;2023-01-31T11:20:30;99757.81;;;5.89;73.79
55757;BME280;41676;44.610;44.078;2023-01-31T11:25:33;99706.63;;;5.56;74.43
55757;BME280;41676;44.610;44.078;2023-01-31T11:30:37;99685.03;;;5.52;74.86
55757;BME280;41676;44.610;44.078;2023-01-31T11:35:50;99744.59;;;5.99;73.56
55757;BME280;41676;44.610;44.078;2023-01-31T11:40:51;99713.69;;;5.73;74.72
55757;BME280;41676;44.610;44.078;2023-01-31T11:46:01;99782.34;;;5.99;73.42
55757;BME280;41676;44.610;44.078;2023-01-31T11:51:03;99693.72;;;5.44;74.37
55757;BME280;41676;44.610;44.078;2023-01-31T11:56:17;99698.88;;;5.72;73.23
55757;BME280;41676;44.610;44.078;2023-01-31T12:01:21;99763.84;;;6.17;74.50
55757;BME280;41676;44.610;44.078;2023-01-31T12:06:37;99740.50;;;5.86;70.31
55757;BME280;41676;44.610;44.078;2023-01-31T12:11:55;99788.03;;;5.94;72.78
55757;BME280;41676;44.610;44.078;2023-01-31T12:16:56;99749.69;;;5.82;73.44
55757;BME280;41676;44.610;44.078;2023-01-31T12:22:09;99778.75;;;5.90;71.82
55757;BME280;41676;44.610;44.078;2023-01-31T12:54:05;99795.31;;;5.65;72.19
55757;BME280;41676;44.610;44.078;2023-01-31T12:59:38;99790.13;;;5.55;72.11
55757;BME280;41676;44.610;44.078;2023-01-31T13:05:26;99799.31;;;5.51;73.26
55757;BME280;41676;44.610;44.078;2023-01-31T13:10:36;99797.69;;;5.40;73.75
55757;BME280;41676;44.610;44.078;2023-01-31T13:16:05;99781.75;;;5.14;73.37
55757;BME280;41676;44.610;44.078;2023-01-31T13:21:07;99807.97;;;5.16;73.86
55757;BME280;41676;44.610;44.078;2023-01-31T13:26:28;99720.53;;;4.57;73.28
55757;BME280;41676;44.610;44.078;2023-01-31T13:31:36;99764.75;;;4.81;73.58
55757;BME280;41676;44.610;44.078;2023-01-31T13:36:49;99816.44;;;5.10;73.90
55757;BME280;41676;44.610;44.078;2023-01-31T13:41:51;99813.81;;;5.10;74.96
55757;BME280;41676;44.610;44.078;2023-01-31T13:47:28;99752.16;;;4.75;73.87
55757;BME280;41676;44.610;44.078;2023-01-31T13:52:35;99821.31;;;5.04;73.02
55757;BME280;41676;44.610;44.078;2023-01-31T13:57:41;99738.28;;;4.55;73.07
55757;BME280;41676;44.610;44.078;2023-01-31T14:03:04;99805.50;;;5.04;73.44
55757;BME280;41676;44.610;44.078;2023-01-31T14:13:42;99809.47;;;5.18;73.89
55757;BME280;41676;44.610;44.078;2023-01-31T14:18:44;99817.84;;;5.04;74.51
55757;BME280;41676;44.610;44.078;2023-01-31T14:23:45;99798.50;;;4.95;74.44
55757;BME280;41676;44.610;44.078;2023-01-31T14:28:49;99808.97;;;5.05;74.37
55757;BME280;41676;44.610;44.078;2023-01-31T14:33:50;99736.00;;;4.70;74.49
55757;BME280;41676;44.610;44.078;2023-01-31T14:50:04;99832.63;;;5.15;74.43
55757;BME280;41676;44.610;44.078;2023-01-31T15:00:37;99839.59;;;5.06;74.74
55757;BME280;41676;44.610;44.078;2023-01-31T15:05:51;99853.75;;;4.95;75.58
55757;BME280;41676;44.610;44.078;2023-01-31T15:11:12;99852.25;;;4.93;77.20
55757;BME280;41676;44.610;44.078;2023-01-31T15:16:23;99864.63;;;4.83;77.00
55757;BME280;41676;44.610;44.078;2023-01-31T15:21:31;99860.63;;;4.69;79.51
55757;BME280;41676;44.610;44.078;2023-01-31T15:26:33;99837.94;;;4.48;79.27
55757;BME280;41676;44.610;44.078;2023-01-31T15:31:41;99851.50;;;4.53;81.83
55757;BME280;41676;44.610;44.078;2023-01-31T15:37:14;99846.81;;;4.47;83.09
55757;BME280;41676;44.610;44.078;2023-01-31T15:42:31;99850.72;;;4.43;81.72
55757;BME280;41676;44.610;44.078;2023-01-31T15:47:32;99830.09;;;4.29;81.56
55757;BME280;41676;44.610;44.078;2023-01-31T15:52:33;99817.09;;;4.27;82.24
55757;BME280;41676;44.610;44.078;2023-01-31T16:02:38;99813.47;;;4.38;82.51
55757;BME280;41676;44.610;44.078;2023-01-31T16:07:39;99753.22;;;4.07;82.32
55757;BME280;41676;44.610;44.078;2023-01-31T16:12:47;99834.59;;;4.66;82.95
55757;BME280;41676;44.610;44.078;2023-01-31T16:17:51;99853.84;;;4.76;82.94
55757;BME280;41676;44.610;44.078;2023-01-31T16:22:56;99827.00;;;4.63;83.71
55757;BME280;41676;44.610;44.078;2023-01-31T16:27:57;99858.94;;;4.77;83.19
55757;BME280;41676;44.610;44.078;2023-01-31T16:33:01;99847.47;;;4.69;83.24
55757;BME280;41676;44.610;44.078;2023-01-31T16:38:18;99848.56;;;4.66;84.65
55757;BME280;41676;44.610;44.078;2023-01-31T16:43:26;99857.41;;;4.75;84.00
55757;BME280;41676;44.610;44.078;2023-01-31T16:48:30;99817.75;;;4.49;83.96
55757;BME280;41676;44.610;44.078;2023-01-31T16:53:35;99845.28;;;4.64;83.92
55757;BME280;41676;44.610;44.078;2023-01-31T16:58:56;99853.72;;;4.68;84.92
55757;BME280;41676;44.610;44.078;2023-01-31T17:04:03;99767.72;;;4.11;85.37
55757;BME280;41676;44.610;44.078;2023-01-31T17:09:06;99842.66;;;4.54;84.51
55757;BME280;41676;44.610;44.078;2023-01-31T17:14:09;99855.94;;;4.53;85.00
55757;BME280;41676;44.610;44.078;2023-01-31T17:19:10;99840.19;;;4.43;85.16
55757;BME280;41676;44.610;44.078;2023-01-31T17:24:16;99802.03;;;4.20;86.59
55757;BME280;41676;44.610;44.078;2023-01-31T17:29:17;99844.34;;;4.46;86.66
55757;BME280;41676;44.610;44.078;2023-01-31T17:34:19;99817.91;;;4.18;86.51
55757;BME280;41676;44.610;44.078;2023-01-31T17:39:20;99762.50;;;3.92;86.90
55757;BME280;41676;44.610;44.078;2023-01-31T17:44:21;99787.38;;;4.07;87.45
55757;BME280;41676;44.610;44.078;2023-01-31T17:49:22;99764.44;;;3.80;88.99
55757;BME280;41676;44.610;44.078;2023-01-31T17:54:22;99827.19;;;4.12;88.05
55757;BME280;41676;44.610;44.078;2023-01-31T17:59:23;99766.63;;;3.85;88.48
55757;BME280;41676;44.610;44.078;2023-01-31T18:04:24;99835.34;;;4.39;88.08
55757;BME280;41676;44.610;44.078;2023-01-31T18:09:25;99797.06;;;4.17;88.54
55757;BME280;41676;44.610;44.078;2023-01-31T18:14:25;99787.09;;;4.10;88.58
55757;BME280;41676;44.610;44.078;2023-01-31T18:19:26;99739.41;;;3.86;88.64
55757;BME280;41676;44.610;44.078;2023-01-31T18:24:27;99814.44;;;4.27;88.42
55757;BME280;41676;44.610;44.078;2023-01-31T18:29:29;99740.91;;;3.79;89.06
55757;BME280;41676;44.610;44.078;2023-01-31T18:34:30;99808.41;;;4.07;89.26
55757;BME280;41676;44.610;44.078;2023-01-31T18:39:32;99814.91;;;3.94;89.84
55757;BME280;41676;44.610;44.078;2023-01-31T18:44:33;99808.53;;;3.86;90.48
55757;BME280;41676;44.610;44.078;2023-01-31T18:49:34;99807.69;;;3.66;91.21
55757;BME280;41676;44.610;44.078;2023-01-31T18:54:35;99799.00;;;3.66;91.89
55757;BME280;41676;44.610;44.078;2023-01-31T18:59:36;99800.63;;;3.57;91.73
55757;BME280;41676;44.610;44.078;2023-01-31T19:04:37;99714.88;;;3.08;91.46
55757;BME280;41676;44.610;44.078;2023-01-31T19:09:38;99735.63;;;3.20;91.84
55757;BME280;41676;44.610;44.078;2023-01-31T19:14:39;99823.06;;;3.71;93.05
55757;BME280;41676;44.610;44.078;2023-01-31T19:19:39;99811.84;;;3.69;92.52
55757;BME280;41676;44.610;44.078;2023-01-31T19:24:40;99771.84;;;3.36;92.28
55757;BME280;41676;44.610;44.078;2023-01-31T19:29:41;99788.59;;;3.35;93.36
55757;BME280;41676;44.610;44.078;2023-01-31T19:34:42;99766.88;;;3.24;93.83
55757;BME280;41676;44.610;44.078;2023-01-31T19:39:42;99655.25;;;2.50;93.82
55757;BME280;41676;44.610;44.078;2023-01-31T19:44:43;99772.66;;;3.17;93.73
55757;BME280;41676;44.610;44.078;2023-01-31T19:49:45;99811.53;;;3.43;94.14
55757;BME280;41676;44.610;44.078;2023-01-31T19:54:45;99763.81;;;3.18;93.39
55757;BME280;41676;44.610;44.078;2023-01-31T19:59:46;99812.78;;;3.49;93.71
55757;BME280;41676;44.610;44.078;2023-01-31T20:04:47;99647.19;;;2.42;94.39
55757;BME280;41676;44.610;44.078;2023-01-31T20:09:48;99811.97;;;3.48;93.83
55757;BME280;41676;44.610;44.078;2023-01-31T20:14:49;99814.59;;;3.48;93.82
55757;BME280;41676;44.610;44.078;2023-01-31T20:19:50;99726.03;;;2.90;94.13
55757;BME280;41676;44.610;44.078;2023-01-31T20:24:50;99814.69;;;3.47;94.60
55757;BME280;41676;44.610;44.078;2023-01-31T20:29:53;99775.41;;;3.26;94.36
55757;BME280;41676;44.610;44.078;2023-01-31T20:34:53;99813.22;;;3.44;94.21
55757;BME280;41676;44.610;44.078;2023-01-31T20:39:54;99807.94;;;3.44;94.64
55757;BME280;41676;44.610;44.078;2023-01-31T20:44:55;99801.44;;;3.38;94.26
55757;BME280;41676;44.610;44.078;2023-01-31T20:49:56;99815.69;;;3.46;94.26
55757;BME280;41676;44.610;44.078;2023-01-31T20:54:57;99798.50;;;3.32;95.04
55757;BME280;41676;44.610;44.078;2023-01-31T20:59:57;99818.56;;;3.42;94.97
55757;BME280;41676;44.610;44.078;2023-01-31T21:04:58;99808.63;;;3.36;94.92
55757;BME280;41676;44.610;44.078;2023-01-31T21:09:59;99724.25;;;2.91;94.62
55757;BME280;41676;44.610;44.078;2023-01-31T21:15:00;99792.03;;;3.36;94.74
55757;BME280;41676;44.610;44.078;2023-01-31T21:20:00;99746.94;;;3.11;94.59
55757;BME280;41676;44.610;44.078;2023-01-31T21:25:01;99821.75;;;3.46;95.04
55757;BME280;41676;44.610;44.078;2023-01-31T21:30:02;99821.09;;;3.44;94.84
55757;BME280;41676;44.610;44.078;2023-01-31T21:35:03;99702.66;;;2.78;95.50
55757;BME280;41676;44.610;44.078;2023-01-31T21:40:04;99707.63;;;2.81;94.64
55757;BME280;41676;44.610;44.078;2023-01-31T21:45:08;99798.66;;;3.40;95.12
55757;BME280;41676;44.610;44.078;2023-01-31T21:50:09;99801.03;;;3.43;95.21
55757;BME280;41676;44.610;44.078;2023-01-31T21:55:10;99798.81;;;3.38;95.55
55757;BME280;41676;44.610;44.078;2023-01-31T22:00:11;99791.06;;;3.37;95.03
55757;BME280;41676;44.610;44.078;2023-01-31T22:05:12;99784.72;;;3.39;95.96
55757;BME280;41676;44.610;44.078;2023-01-31T22:10:13;99798.13;;;3.46;94.94
55757;BME280;41676;44.610;44.078;2023-01-31T22:15:13;99779.31;;;3.31;95.43
55757;BME280;41676;44.610;44.078;2023-01-31T22:20:15;99738.75;;;3.05;95.81
55757;BME280;41676;44.610;44.078;2023-01-31T22:25:15;99802.94;;;3.41;95.46
55757;BME280;41676;44.610;44.078;2023-01-31T22:30:16;99744.16;;;3.03;96.05
55757;BME280;41676;44.610;44.078;2023-01-31T22:35:17;99775.97;;;3.19;95.80
55757;BME280;41676;44.610;44.078;2023-01-31T22:40:18;99786.06;;;3.24;96.35
55757;BME280;41676;44.610;44.078;2023-01-31T22:45:18;99765.16;;;3.13;96.41
55757;BME280;41676;44.610;44.078;2023-01-31T22:50:19;99789.81;;;3.31;96.67
55757;BME280;41676;44.610;44.078;2023-01-31T22:55:20;99794.66;;;3.36;96.05
55757;BME280;41676;44.610;44.078;2023-01-31T23:00:21;99789.13;;;3.29;96.67
55757;BME280;41676;44.610;44.078;2023-01-31T23:05:21;99746.22;;;3.00;97.07
55757;BME280;41676;44.610;44.078;2023-01-31T23:10:23;99798.91;;;3.27;96.64
55757;BME280;41676;44.610;44.078;2023-01-31T23:15:25;99738.19;;;2.91;96.68
55757;BME280;41676;44.610;44.078;2023-01-31T23:20:26;99804.03;;;3.29;97.56
55757;BME280;41676;44.610;44.078;2023-01-31T23:25:28;99787.44;;;3.18;97.53
55757;BME280;41676;44.610;44.078;2023-01-31T23:30:29;99786.16;;;3.13;97.70
55757;BME280;41676;44.610;44.078;2023-01-31T23:35:30;99800.56;;;3.18;96.93
55757;BME280;41676;44.610;44.078;2023-01-31T23:40:30;99802.66;;;3.25;98.10
55757;BME280;41676;44.610;44.078;2023-01-31T23:45:31;99785.91;;;3.16;97.51
55757;BME280;41676;44.610;44.078;2023-01-31T23:50:32;99794.31;;;3.19;97.30
55757;BME280;41676;44.610;44.078;2023-01-31T23:55:33;99782.72;;;3.12;98.13
